Airport Name : Campo Fontenelle

Other Name : Piracununga

ICAO : SBYS

IATA :

FAA :

Latitude : -21.984561

Longitude : -47.334764

Country : Brazil

Local Date and Time : 4/23/2018 8:07:00 PM

 

TAF (Terminal Aerodrome Forecast)

 

METAR (METeorological Aerodrome Report)

SBYS 232200Z 16003KT CAVOK 23/14 Q1019

SBYS 232100Z 05002KT CAVOK 27/12 Q1019

SBYS 232000Z 08004KT CAVOK 28/10 Q1019